sensor_id;sensor_type;location;lat;lon;timestamp;P1;durP1;ratioP1;P2;durP2;ratioP2
8540;SDS011;4308;51.294;6.590;2023-04-06T00:01:24;11.63;;;7.27;;
8540;SDS011;4308;51.294;6.590;2023-04-06T00:03:52;11.60;;;6.60;;
8540;SDS011;4308;51.294;6.590;2023-04-06T00:06:20;10.03;;;7.43;;
8540;SDS011;4308;51.294;6.590;2023-04-06T00:08:47;14.87;;;7.70;;
8540;SDS011;4308;51.294;6.590;2023-04-06T00:11:15;12.57;;;7.30;;
8540;SDS011;4308;51.294;6.590;2023-04-06T00:13:42;11.63;;;7.40;;
8540;SDS011;4308;51.294;6.590;2023-04-06T00:16:10;13.53;;;7.87;;
8540;SDS011;4308;51.294;6.590;2023-04-06T00:18:38;12.07;;;7.43;;
8540;SDS011;4308;51.294;6.590;2023-04-06T00:21:07;16.60;;;8.43;;
8540;SDS011;4308;51.294;6.590;2023-04-06T00:23:34;13.30;;;8.50;;
8540;SDS011;4308;51.294;6.590;2023-04-06T00:26:02;12.60;;;7.73;;
8540;SDS011;4308;51.294;6.590;2023-04-06T00:28:30;12.63;;;7.67;;
8540;SDS011;4308;51.294;6.590;2023-04-06T00:30:57;12.63;;;8.47;;
8540;SDS011;4308;51.294;6.590;2023-04-06T00:33:25;13.67;;;8.50;;
8540;SDS011;4308;51.294;6.590;2023-04-06T00:35:52;13.70;;;7.90;;
8540;SDS011;4308;51.294;6.590;2023-04-06T00:38:21;13.60;;;7.97;;
8540;SDS011;4308;51.294;6.590;2023-04-06T00:40:49;11.87;;;7.87;;
8540;SDS011;4308;51.294;6.590;2023-04-06T00:43:17;11.40;;;8.23;;
8540;SDS011;4308;51.294;6.590;2023-04-06T00:45:44;14.80;;;7.70;;
8540;SDS011;4308;51.294;6.590;2023-04-06T00:48:12;12.00;;;7.60;;
8540;SDS011;4308;51.294;6.590;2023-04-06T00:50:40;8.77;;;6.80;;
8540;SDS011;4308;51.294;6.590;2023-04-06T00:53:07;12.57;;;7.67;;
8540;SDS011;4308;51.294;6.590;2023-04-06T00:55:35;12.20;;;7.77;;
8540;SDS011;4308;51.294;6.590;2023-04-06T00:58:02;11.80;;;8.13;;
8540;SDS011;4308;51.294;6.590;2023-04-06T01:00:30;12.87;;;8.37;;
8540;SDS011;4308;51.294;6.590;2023-04-06T01:02:58;14.53;;;9.13;;
8540;SDS011;4308;51.294;6.590;2023-04-06T01:05:26;11.50;;;7.70;;
8540;SDS011;4308;51.294;6.590;2023-04-06T01:07:54;12.87;;;7.87;;
8540;SDS011;4308;51.294;6.590;2023-04-06T01:10:22;15.03;;;8.40;;
8540;SDS011;4308;51.294;6.590;2023-04-06T01:12:50;14.73;;;9.00;;
8540;SDS011;4308;51.294;6.590;2023-04-06T01:15:17;14.43;;;8.63;;
8540;SDS011;4308;51.294;6.590;2023-04-06T01:17:45;12.13;;;8.43;;
8540;SDS011;4308;51.294;6.590;2023-04-06T01:20:13;14.53;;;8.80;;
8540;SDS011;4308;51.294;6.590;2023-04-06T01:22:41;12.57;;;8.27;;
8540;SDS011;4308;51.294;6.590;2023-04-06T01:25:09;13.00;;;8.13;;
8540;SDS011;4308;51.294;6.590;2023-04-06T01:27:36;13.80;;;8.87;;
8540;SDS011;4308;51.294;6.590;2023-04-06T01:30:04;12.97;;;7.97;;
8540;SDS011;4308;51.294;6.590;2023-04-06T01:32:32;15.63;;;9.40;;
8540;SDS011;4308;51.294;6.590;2023-04-06T01:35:00;12.90;;;8.80;;
8540;SDS011;4308;51.294;6.590;2023-04-06T01:37:27;13.60;;;8.80;;
8540;SDS011;4308;51.294;6.590;2023-04-06T01:39:55;15.73;;;8.70;;
8540;SDS011;4308;51.294;6.590;2023-04-06T01:42:23;13.13;;;8.17;;
8540;SDS011;4308;51.294;6.590;2023-04-06T01:44:50;14.37;;;9.40;;
8540;SDS011;4308;51.294;6.590;2023-04-06T01:47:18;17.33;;;9.30;;
8540;SDS011;4308;51.294;6.590;2023-04-06T01:49:45;14.23;;;8.67;;
8540;SDS011;4308;51.294;6.590;2023-04-06T01:52:13;13.27;;;7.93;;
8540;SDS011;4308;51.294;6.590;2023-04-06T01:54:40;15.23;;;8.47;;
8540;SDS011;4308;51.294;6.590;2023-04-06T01:57:09;16.60;;;9.70;;
8540;SDS011;4308;51.294;6.590;2023-04-06T01:59:37;16.80;;;9.50;;
8540;SDS011;4308;51.294;6.590;2023-04-06T02:02:05;12.07;;;8.53;;
8540;SDS011;4308;51.294;6.590;2023-04-06T02:04:32;15.40;;;9.33;;
8540;SDS011;4308;51.294;6.590;2023-04-06T02:07:00;14.10;;;8.80;;
8540;SDS011;4308;51.294;6.590;2023-04-06T02:09:28;17.43;;;9.40;;
8540;SDS011;4308;51.294;6.590;2023-04-06T02:11:55;16.43;;;8.93;;
8540;SDS011;4308;51.294;6.590;2023-04-06T02:14:25;14.73;;;9.13;;
8540;SDS011;4308;51.294;6.590;2023-04-06T02:16:52;16.70;;;9.67;;
8540;SDS011;4308;51.294;6.590;2023-04-06T02:19:20;14.87;;;9.50;;
8540;SDS011;4308;51.294;6.590;2023-04-06T02:21:48;15.53;;;8.77;;
8540;SDS011;4308;51.294;6.590;2023-04-06T02:24:15;15.17;;;9.67;;
8540;SDS011;4308;51.294;6.590;2023-04-06T02:26:43;15.97;;;9.20;;
8540;SDS011;4308;51.294;6.590;2023-04-06T02:29:11;16.50;;;9.23;;
8540;SDS011;4308;51.294;6.590;2023-04-06T02:31:38;16.70;;;9.27;;
8540;SDS011;4308;51.294;6.590;2023-04-06T02:34:06;19.57;;;9.13;;
8540;SDS011;4308;51.294;6.590;2023-04-06T02:36:34;16.67;;;9.07;;
8540;SDS011;4308;51.294;6.590;2023-04-06T02:39:01;15.63;;;9.50;;
8540;SDS011;4308;51.294;6.590;2023-04-06T02:41:29;16.13;;;9.87;;
8540;SDS011;4308;51.294;6.590;2023-04-06T02:43:56;20.10;;;10.53;;
8540;SDS011;4308;51.294;6.590;2023-04-06T02:46:24;17.63;;;10.17;;
8540;SDS011;4308;51.294;6.590;2023-04-06T02:48:52;18.10;;;10.03;;
8540;SDS011;4308;51.294;6.590;2023-04-06T02:51:19;16.30;;;10.10;;
8540;SDS011;4308;51.294;6.590;2023-04-06T02:53:47;21.10;;;10.97;;
8540;SDS011;4308;51.294;6.590;2023-04-06T02:56:14;17.03;;;9.47;;
8540;SDS011;4308;51.294;6.590;2023-04-06T02:58:42;18.30;;;11.10;;
8540;SDS011;4308;51.294;6.590;2023-04-06T03:01:10;19.60;;;11.63;;
8540;SDS011;4308;51.294;6.590;2023-04-06T03:03:37;22.20;;;11.00;;
8540;SDS011;4308;51.294;6.590;2023-04-06T03:06:05;20.80;;;10.73;;
8540;SDS011;4308;51.294;6.590;2023-04-06T03:08:33;16.97;;;10.53;;
8540;SDS011;4308;51.294;6.590;2023-04-06T03:11:01;18.13;;;10.63;;
8540;SDS011;4308;51.294;6.590;2023-04-06T03:13:28;16.43;;;10.43;;
8540;SDS011;4308;51.294;6.590;2023-04-06T03:15:56;16.10;;;10.37;;
8540;SDS011;4308;51.294;6.590;2023-04-06T03:18:24;18.10;;;10.70;;
8540;SDS011;4308;51.294;6.590;2023-04-06T03:20:52;17.60;;;10.57;;
8540;SDS011;4308;51.294;6.590;2023-04-06T03:23:19;18.97;;;11.63;;
8540;SDS011;4308;51.294;6.590;2023-04-06T03:25:47;19.33;;;12.03;;
8540;SDS011;4308;51.294;6.590;2023-04-06T03:28:15;16.83;;;11.33;;
8540;SDS011;4308;51.294;6.590;2023-04-06T03:30:42;19.97;;;11.50;;
8540;SDS011;4308;51.294;6.590;2023-04-06T03:33:10;21.07;;;11.87;;
8540;SDS011;4308;51.294;6.590;2023-04-06T03:35:38;22.00;;;12.77;;
8540;SDS011;4308;51.294;6.590;2023-04-06T03:38:05;19.90;;;13.07;;
8540;SDS011;4308;51.294;6.590;2023-04-06T03:40:33;25.67;;;13.57;;
8540;SDS011;4308;51.294;6.590;2023-04-06T03:43:01;24.07;;;13.83;;
8540;SDS011;4308;51.294;6.590;2023-04-06T03:45:29;22.73;;;13.23;;
8540;SDS011;4308;51.294;6.590;2023-04-06T03:47:56;24.40;;;14.73;;
8540;SDS011;4308;51.294;6.590;2023-04-06T03:50:24;23.33;;;14.10;;
8540;SDS011;4308;51.294;6.590;2023-04-06T03:52:52;26.27;;;14.80;;
8540;SDS011;4308;51.294;6.590;2023-04-06T03:55:19;23.37;;;13.63;;
8540;SDS011;4308;51.294;6.590;2023-04-06T03:57:47;24.97;;;13.83;;
8540;SDS011;4308;51.294;6.590;2023-04-06T04:00:15;24.87;;;13.60;;
8540;SDS011;4308;51.294;6.590;2023-04-06T04:02:42;21.93;;;12.40;;
8540;SDS011;4308;51.294;6.590;2023-04-06T04:05:10;24.00;;;13.30;;
8540;SDS011;4308;51.294;6.590;2023-04-06T04:07:38;22.20;;;12.13;;
8540;SDS011;4308;51.294;6.590;2023-04-06T04:10:05;20.23;;;13.63;;
8540;SDS011;4308;51.294;6.590;2023-04-06T04:12:33;21.57;;;13.03;;
8540;SDS011;4308;51.294;6.590;2023-04-06T04:15:01;27.00;;;14.43;;
8540;SDS011;4308;51.294;6.590;2023-04-06T04:17:28;30.13;;;17.20;;
8540;SDS011;4308;51.294;6.590;2023-04-06T04:19:56;27.97;;;17.27;;
8540;SDS011;4308;51.294;6.590;2023-04-06T04:22:24;26.90;;;16.37;;
8540;SDS011;4308;51.294;6.590;2023-04-06T04:24:51;26.43;;;15.83;;
8540;SDS011;4308;51.294;6.590;2023-04-06T04:27:19;22.93;;;16.20;;
8540;SDS011;4308;51.294;6.590;2023-04-06T04:29:47;29.83;;;16.80;;
8540;SDS011;4308;51.294;6.590;2023-04-06T04:32:14;29.60;;;17.77;;
8540;SDS011;4308;51.294;6.590;2023-04-06T04:34:42;24.87;;;17.23;;
8540;SDS011;4308;51.294;6.590;2023-04-06T04:37:09;25.67;;;17.47;;
8540;SDS011;4308;51.294;6.590;2023-04-06T04:39:37;24.67;;;17.20;;
8540;SDS011;4308;51.294;6.590;2023-04-06T04:42:05;28.40;;;16.90;;
8540;SDS011;4308;51.294;6.590;2023-04-06T04:44:32;27.93;;;15.97;;
8540;SDS011;4308;51.294;6.590;2023-04-06T04:47:00;26.33;;;15.67;;
8540;SDS011;4308;51.294;6.590;2023-04-06T04:49:27;26.07;;;15.97;;
8540;SDS011;4308;51.294;6.590;2023-04-06T04:51:55;26.07;;;16.37;;
8540;SDS011;4308;51.294;6.590;2023-04-06T04:54:23;30.20;;;13.73;;
8540;SDS011;4308;51.294;6.590;2023-04-06T04:56:50;19.50;;;12.23;;
8540;SDS011;4308;51.294;6.590;2023-04-06T04:59:18;19.93;;;12.57;;
8540;SDS011;4308;51.294;6.590;2023-04-06T05:01:46;23.13;;;12.53;;
8540;SDS011;4308;51.294;6.590;2023-04-06T05:04:21;18.33;;;10.80;;
8540;SDS011;4308;51.294;6.590;2023-04-06T05:06:49;20.20;;;12.43;;
8540;SDS011;4308;51.294;6.590;2023-04-06T05:09:16;17.13;;;11.67;;
8540;SDS011;4308;51.294;6.590;2023-04-06T05:11:44;19.37;;;11.80;;
8540;SDS011;4308;51.294;6.590;2023-04-06T05:14:12;18.80;;;11.13;;
8540;SDS011;4308;51.294;6.590;2023-04-06T05:16:39;16.30;;;11.27;;
8540;SDS011;4308;51.294;6.590;2023-04-06T05:19:07;17.60;;;10.87;;
8540;SDS011;4308;51.294;6.590;2023-04-06T05:21:35;17.00;;;10.70;;
8540;SDS011;4308;51.294;6.590;2023-04-06T05:24:03;17.97;;;10.93;;
8540;SDS011;4308;51.294;6.590;2023-04-06T05:26:30;21.47;;;11.50;;
8540;SDS011;4308;51.294;6.590;2023-04-06T05:28:58;16.77;;;10.17;;
8540;SDS011;4308;51.294;6.590;2023-04-06T05:31:27;16.07;;;9.93;;
8540;SDS011;4308;51.294;6.590;2023-04-06T05:33:55;18.70;;;9.87;;
8540;SDS011;4308;51.294;6.590;2023-04-06T05:36:22;16.77;;;9.73;;
8540;SDS011;4308;51.294;6.590;2023-04-06T05:38:50;12.53;;;9.63;;
8540;SDS011;4308;51.294;6.590;2023-04-06T05:41:18;18.37;;;10.23;;
8540;SDS011;4308;51.294;6.590;2023-04-06T05:43:45;16.57;;;9.07;;
8540;SDS011;4308;51.294;6.590;2023-04-06T05:46:13;15.73;;;9.33;;
8540;SDS011;4308;51.294;6.590;2023-04-06T05:48:40;17.20;;;9.97;;
8540;SDS011;4308;51.294;6.590;2023-04-06T05:51:08;13.00;;;9.60;;
8540;SDS011;4308;51.294;6.590;2023-04-06T05:53:36;19.10;;;9.80;;
8540;SDS011;4308;51.294;6.590;2023-04-06T05:56:03;17.57;;;9.27;;
8540;SDS011;4308;51.294;6.590;2023-04-06T05:58:31;15.73;;;9.87;;
8540;SDS011;4308;51.294;6.590;2023-04-06T06:01:00;17.07;;;10.07;;
8540;SDS011;4308;51.294;6.590;2023-04-06T06:03:27;18.37;;;8.87;;
8540;SDS011;4308;51.294;6.590;2023-04-06T06:06:02;20.50;;;8.87;;
8540;SDS011;4308;51.294;6.590;2023-04-06T06:08:31;13.20;;;8.67;;
8540;SDS011;4308;51.294;6.590;2023-04-06T06:10:59;15.03;;;9.60;;
8540;SDS011;4308;51.294;6.590;2023-04-06T06:13:29;24.20;;;10.03;;
8540;SDS011;4308;51.294;6.590;2023-04-06T06:15:57;18.77;;;10.27;;
8540;SDS011;4308;51.294;6.590;2023-04-06T06:18:24;15.60;;;9.10;;
8540;SDS011;4308;51.294;6.590;2023-04-06T06:20:52;16.17;;;9.80;;
8540;SDS011;4308;51.294;6.590;2023-04-06T06:23:20;18.37;;;10.37;;
8540;SDS011;4308;51.294;6.590;2023-04-06T06:25:50;18.33;;;9.80;;
8540;SDS011;4308;51.294;6.590;2023-04-06T06:28:18;14.90;;;9.97;;
8540;SDS011;4308;51.294;6.590;2023-04-06T06:30:45;18.50;;;9.63;;
8540;SDS011;4308;51.294;6.590;2023-04-06T06:33:13;17.03;;;10.63;;
8540;SDS011;4308;51.294;6.590;2023-04-06T06:35:41;20.77;;;9.87;;
8540;SDS011;4308;51.294;6.590;2023-04-06T06:38:08;19.00;;;9.57;;
8540;SDS011;4308;51.294;6.590;2023-04-06T06:40:36;14.37;;;9.13;;
8540;SDS011;4308;51.294;6.590;2023-04-06T06:43:04;14.68;;;9.93;;
8540;SDS011;4308;51.294;6.590;2023-04-06T06:45:31;19.87;;;10.03;;
8540;SDS011;4308;51.294;6.590;2023-04-06T06:47:59;13.77;;;9.43;;
8540;SDS011;4308;51.294;6.590;2023-04-06T06:50:27;14.80;;;10.13;;
8540;SDS011;4308;51.294;6.590;2023-04-06T06:52:54;16.10;;;9.57;;
8540;SDS011;4308;51.294;6.590;2023-04-06T06:55:22;13.03;;;9.87;;
8540;SDS011;4308;51.294;6.590;2023-04-06T06:57:50;15.97;;;9.50;;
8540;SDS011;4308;51.294;6.590;2023-04-06T07:00:17;16.50;;;10.47;;
8540;SDS011;4308;51.294;6.590;2023-04-06T07:02:45;17.87;;;10.80;;
8540;SDS011;4308;51.294;6.590;2023-04-06T07:05:13;18.07;;;10.40;;
8540;SDS011;4308;51.294;6.590;2023-04-06T07:07:54;15.73;;;10.00;;
8540;SDS011;4308;51.294;6.590;2023-04-06T07:10:22;16.63;;;10.70;;
8540;SDS011;4308;51.294;6.590;2023-04-06T07:12:49;15.40;;;11.27;;
8540;SDS011;4308;51.294;6.590;2023-04-06T07:15:17;16.07;;;10.70;;
8540;SDS011;4308;51.294;6.590;2023-04-06T07:17:45;13.70;;;10.27;;
8540;SDS011;4308;51.294;6.590;2023-04-06T07:20:13;17.00;;;10.83;;
8540;SDS011;4308;51.294;6.590;2023-04-06T07:22:42;18.07;;;11.07;;
8540;SDS011;4308;51.294;6.590;2023-04-06T07:25:10;21.75;;;12.07;;
8540;SDS011;4308;51.294;6.590;2023-04-06T07:27:38;17.67;;;10.63;;
8540;SDS011;4308;51.294;6.590;2023-04-06T07:30:06;12.57;;;9.80;;
8540;SDS011;4308;51.294;6.590;2023-04-06T07:32:34;16.63;;;9.90;;
8540;SDS011;4308;51.294;6.590;2023-04-06T07:35:03;19.17;;;10.73;;
8540;SDS011;4308;51.294;6.590;2023-04-06T07:37:31;16.17;;;10.10;;
8540;SDS011;4308;51.294;6.590;2023-04-06T07:39:58;20.37;;;10.87;;
8540;SDS011;4308;51.294;6.590;2023-04-06T07:42:26;14.20;;;9.30;;
8540;SDS011;4308;51.294;6.590;2023-04-06T07:44:53;15.73;;;10.63;;
8540;SDS011;4308;51.294;6.590;2023-04-06T07:47:21;18.87;;;11.03;;
8540;SDS011;4308;51.294;6.590;2023-04-06T07:49:49;17.43;;;10.23;;
8540;SDS011;4308;51.294;6.590;2023-04-06T07:52:16;17.93;;;10.37;;
8540;SDS011;4308;51.294;6.590;2023-04-06T07:54:44;15.90;;;10.20;;
8540;SDS011;4308;51.294;6.590;2023-04-06T07:57:12;21.20;;;9.63;;
8540;SDS011;4308;51.294;6.590;2023-04-06T07:59:39;16.20;;;11.00;;
8540;SDS011;4308;51.294;6.590;2023-04-06T08:02:07;13.27;;;10.10;;
8540;SDS011;4308;51.294;6.590;2023-04-06T08:04:35;18.60;;;9.27;;
8540;SDS011;4308;51.294;6.590;2023-04-06T08:07:03;19.50;;;10.03;;
8540;SDS011;4308;51.294;6.590;2023-04-06T08:09:30;16.37;;;10.53;;
8540;SDS011;4308;51.294;6.590;2023-04-06T08:11:58;17.20;;;10.47;;
8540;SDS011;4308;51.294;6.590;2023-04-06T08:14:25;14.83;;;9.83;;
8540;SDS011;4308;51.294;6.590;2023-04-06T08:16:53;19.03;;;9.97;;
8540;SDS011;4308;51.294;6.590;2023-04-06T08:19:21;16.63;;;9.77;;
8540;SDS011;4308;51.294;6.590;2023-04-06T08:21:49;14.50;;;10.37;;
8540;SDS011;4308;51.294;6.590;2023-04-06T08:24:16;16.53;;;9.60;;
8540;SDS011;4308;51.294;6.590;2023-04-06T08:26:44;17.17;;;10.57;;
8540;SDS011;4308;51.294;6.590;2023-04-06T08:29:11;19.87;;;11.90;;
8540;SDS011;4308;51.294;6.590;2023-04-06T08:31:39;16.87;;;10.57;;
8540;SDS011;4308;51.294;6.590;2023-04-06T08:34:07;15.03;;;10.20;;
8540;SDS011;4308;51.294;6.590;2023-04-06T08:36:38;17.63;;;10.20;;
8540;SDS011;4308;51.294;6.590;2023-04-06T08:39:06;14.10;;;9.70;;
8540;SDS011;4308;51.294;6.590;2023-04-06T08:41:34;14.50;;;9.93;;
8540;SDS011;4308;51.294;6.590;2023-04-06T08:44:02;13.27;;;9.93;;
8540;SDS011;4308;51.294;6.590;2023-04-06T08:46:30;16.33;;;10.03;;
8540;SDS011;4308;51.294;6.590;2023-04-06T08:48:58;12.50;;;9.70;;
8540;SDS011;4308;51.294;6.590;2023-04-06T08:51:27;13.40;;;9.37;;
8540;SDS011;4308;51.294;6.590;2023-04-06T08:53:55;14.70;;;9.20;;
8540;SDS011;4308;51.294;6.590;2023-04-06T08:56:24;16.60;;;9.87;;
8540;SDS011;4308;51.294;6.590;2023-04-06T08:58:51;14.20;;;10.07;;
8540;SDS011;4308;51.294;6.590;2023-04-06T09:01:25;15.50;;;10.23;;
8540;SDS011;4308;51.294;6.590;2023-04-06T09:03:57;16.33;;;9.97;;
8540;SDS011;4308;51.294;6.590;2023-04-06T09:06:25;17.03;;;9.93;;
8540;SDS011;4308;51.294;6.590;2023-04-06T09:08:53;15.67;;;10.03;;
8540;SDS011;4308;51.294;6.590;2023-04-06T09:11:21;14.33;;;9.80;;
8540;SDS011;4308;51.294;6.590;2023-04-06T09:13:55;13.97;;;9.97;;
8540;SDS011;4308;51.294;6.590;2023-04-06T09:16:23;20.33;;;10.47;;
8540;SDS011;4308;51.294;6.590;2023-04-06T09:18:51;17.33;;;9.93;;
8540;SDS011;4308;51.294;6.590;2023-04-06T09:21:19;15.67;;;9.63;;
8540;SDS011;4308;51.294;6.590;2023-04-06T09:24:00;15.17;;;9.53;;
8540;SDS011;4308;51.294;6.590;2023-04-06T09:26:28;15.97;;;9.97;;
8540;SDS011;4308;51.294;6.590;2023-04-06T09:28:56;16.87;;;10.53;;
8540;SDS011;4308;51.294;6.590;2023-04-06T09:31:25;19.00;;;9.77;;
8540;SDS011;4308;51.294;6.590;2023-04-06T09:33:53;17.60;;;11.03;;
8540;SDS011;4308;51.294;6.590;2023-04-06T09:36:30;15.43;;;9.97;;
8540;SDS011;4308;51.294;6.590;2023-04-06T09:38:59;18.67;;;10.60;;
8540;SDS011;4308;51.294;6.590;2023-04-06T09:41:27;15.83;;;9.77;;
8540;SDS011;4308;51.294;6.590;2023-04-06T09:44:05;16.10;;;9.87;;
8540;SDS011;4308;51.294;6.590;2023-04-06T09:46:43;17.30;;;10.17;;
8540;SDS011;4308;51.294;6.590;2023-04-06T09:49:27;20.07;;;11.63;;
8540;SDS011;4308;51.294;6.590;2023-04-06T09:52:13;17.73;;;10.00;;
8540;SDS011;4308;51.294;6.590;2023-04-06T09:54:41;17.80;;;10.90;;
8540;SDS011;4308;51.294;6.590;2023-04-06T09:57:22;16.90;;;10.73;;
8540;SDS011;4308;51.294;6.590;2023-04-06T09:59:56;17.63;;;11.33;;
8540;SDS011;4308;51.294;6.590;2023-04-06T10:02:28;14.90;;;9.63;;
8540;SDS011;4308;51.294;6.590;2023-04-06T10:05:02;22.00;;;11.73;;
8540;SDS011;4308;51.294;6.590;2023-04-06T10:07:30;17.50;;;10.17;;
8540;SDS011;4308;51.294;6.590;2023-04-06T10:09:58;17.07;;;10.67;;
8540;SDS011;4308;51.294;6.590;2023-04-06T10:12:26;16.03;;;10.67;;
8540;SDS011;4308;51.294;6.590;2023-04-06T10:14:54;17.40;;;11.43;;
8540;SDS011;4308;51.294;6.590;2023-04-06T10:17:22;20.47;;;11.93;;
8540;SDS011;4308;51.294;6.590;2023-04-06T10:19:52;20.20;;;11.60;;
8540;SDS011;4308;51.294;6.590;2023-04-06T10:22:26;19.53;;;11.13;;
8540;SDS011;4308;51.294;6.590;2023-04-06T10:24:53;18.23;;;10.87;;
8540;SDS011;4308;51.294;6.590;2023-04-06T10:27:28;17.03;;;11.53;;
8540;SDS011;4308;51.294;6.590;2023-04-06T10:30:00;19.00;;;11.33;;
8540;SDS011;4308;51.294;6.590;2023-04-06T10:32:38;18.73;;;10.87;;
8540;SDS011;4308;51.294;6.590;2023-04-06T10:35:09;18.97;;;11.23;;
8540;SDS011;4308;51.294;6.590;2023-04-06T10:38:03;17.63;;;10.77;;
8540;SDS011;4308;51.294;6.590;2023-04-06T10:40:31;19.63;;;12.63;;
8540;SDS011;4308;51.294;6.590;2023-04-06T10:45:36;20.77;;;12.30;;
8540;SDS011;4308;51.294;6.590;2023-04-06T10:48:16;17.53;;;11.37;;
8540;SDS011;4308;51.294;6.590;2023-04-06T10:50:46;21.13;;;11.10;;
8540;SDS011;4308;51.294;6.590;2023-04-06T10:53:32;20.80;;;11.63;;
8540;SDS011;4308;51.294;6.590;2023-04-06T10:56:00;18.27;;;11.63;;
8540;SDS011;4308;51.294;6.590;2023-04-06T10:58:28;22.97;;;11.07;;
8540;SDS011;4308;51.294;6.590;2023-04-06T11:00:55;20.30;;;12.00;;
8540;SDS011;4308;51.294;6.590;2023-04-06T11:03:23;25.03;;;10.93;;
8540;SDS011;4308;51.294;6.590;2023-04-06T11:05:51;19.07;;;10.93;;
8540;SDS011;4308;51.294;6.590;2023-04-06T11:08:52;19.67;;;11.23;;
8540;SDS011;4308;51.294;6.590;2023-04-06T11:11:14;17.93;;;10.33;;
8540;SDS011;4308;51.294;6.590;2023-04-06T11:13:43;18.53;;;12.13;;
8540;SDS011;4308;51.294;6.590;2023-04-06T11:21:15;19.93;;;10.43;;
8540;SDS011;4308;51.294;6.590;2023-04-06T11:23:43;17.53;;;11.33;;
8540;SDS011;4308;51.294;6.590;2023-04-06T11:26:11;17.83;;;10.60;;
8540;SDS011;4308;51.294;6.590;2023-04-06T11:28:41;17.43;;;10.93;;
8540;SDS011;4308;51.294;6.590;2023-04-06T11:31:09;18.77;;;10.97;;
8540;SDS011;4308;51.294;6.590;2023-04-06T11:33:37;17.57;;;11.00;;
8540;SDS011;4308;51.294;6.590;2023-04-06T11:36:05;17.60;;;11.20;;
8540;SDS011;4308;51.294;6.590;2023-04-06T11:38:33;17.93;;;11.30;;
8540;SDS011;4308;51.294;6.590;2023-04-06T11:41:01;17.90;;;11.50;;
8540;SDS011;4308;51.294;6.590;2023-04-06T11:43:29;17.37;;;10.80;;
8540;SDS011;4308;51.294;6.590;2023-04-06T11:46:00;18.70;;;10.50;;
8540;SDS011;4308;51.294;6.590;2023-04-06T11:48:29;19.10;;;11.03;;
8540;SDS011;4308;51.294;6.590;2023-04-06T11:51:01;20.87;;;11.53;;
8540;SDS011;4308;51.294;6.590;2023-04-06T11:53:28;19.90;;;11.23;;
8540;SDS011;4308;51.294;6.590;2023-04-06T11:55:56;20.93;;;12.07;;
8540;SDS011;4308;51.294;6.590;2023-04-06T11:58:24;19.67;;;11.53;;
8540;SDS011;4308;51.294;6.590;2023-04-06T12:00:51;17.87;;;11.50;;
8540;SDS011;4308;51.294;6.590;2023-04-06T12:03:19;18.30;;;11.53;;
8540;SDS011;4308;51.294;6.590;2023-04-06T12:05:47;20.87;;;12.57;;
8540;SDS011;4308;51.294;6.590;2023-04-06T12:08:15;18.87;;;11.63;;
8540;SDS011;4308;51.294;6.590;2023-04-06T12:10:42;13.70;;;8.13;;
8540;SDS011;4308;51.294;6.590;2023-04-06T12:13:10;11.93;;;6.97;;
8540;SDS011;4308;51.294;6.590;2023-04-06T12:15:37;9.43;;;6.77;;
8540;SDS011;4308;51.294;6.590;2023-04-06T12:18:05;13.97;;;7.93;;
8540;SDS011;4308;51.294;6.590;2023-04-06T12:20:32;12.60;;;7.67;;
8540;SDS011;4308;51.294;6.590;2023-04-06T12:23:00;12.97;;;8.03;;
8540;SDS011;4308;51.294;6.590;2023-04-06T12:25:28;11.67;;;7.83;;
8540;SDS011;4308;51.294;6.590;2023-04-06T12:27:57;10.50;;;6.97;;
8540;SDS011;4308;51.294;6.590;2023-04-06T12:30:25;8.90;;;7.07;;
8540;SDS011;4308;51.294;6.590;2023-04-06T12:32:52;9.87;;;6.80;;
8540;SDS011;4308;51.294;6.590;2023-04-06T12:35:20;10.53;;;6.40;;
8540;SDS011;4308;51.294;6.590;2023-04-06T12:37:48;5.77;;;5.03;;
8540;SDS011;4308;51.294;6.590;2023-04-06T12:40:15;9.10;;;5.50;;
8540;SDS011;4308;51.294;6.590;2023-04-06T12:42:43;10.00;;;5.60;;
8540;SDS011;4308;51.294;6.590;2023-04-06T12:45:11;14.40;;;6.60;;
8540;SDS011;4308;51.294;6.590;2023-04-06T12:47:38;7.70;;;5.37;;
8540;SDS011;4308;51.294;6.590;2023-04-06T12:50:06;7.90;;;5.40;;
8540;SDS011;4308;51.294;6.590;2023-04-06T12:52:34;6.27;;;5.00;;
8540;SDS011;4308;51.294;6.590;2023-04-06T12:55:04;6.63;;;4.97;;
8540;SDS011;4308;51.294;6.590;2023-04-06T12:57:32;9.30;;;4.90;;
8540;SDS011;4308;51.294;6.590;2023-04-06T13:00:00;7.93;;;5.07;;
8540;SDS011;4308;51.294;6.590;2023-04-06T13:02:27;7.23;;;5.23;;
8540;SDS011;4308;51.294;6.590;2023-04-06T13:04:55;8.00;;;5.20;;
8540;SDS011;4308;51.294;6.590;2023-04-06T13:07:23;9.33;;;6.03;;
8540;SDS011;4308;51.294;6.590;2023-04-06T13:09:51;9.97;;;6.77;;
8540;SDS011;4308;51.294;6.590;2023-04-06T13:12:18;10.73;;;6.10;;
8540;SDS011;4308;51.294;6.590;2023-04-06T13:14:46;7.80;;;6.03;;
8540;SDS011;4308;51.294;6.590;2023-04-06T13:17:14;12.53;;;6.73;;
8540;SDS011;4308;51.294;6.590;2023-04-06T13:19:41;10.43;;;6.17;;
8540;SDS011;4308;51.294;6.590;2023-04-06T13:22:09;9.50;;;6.00;;
8540;SDS011;4308;51.294;6.590;2023-04-06T13:24:37;9.60;;;6.27;;
8540;SDS011;4308;51.294;6.590;2023-04-06T13:27:04;10.10;;;6.67;;
8540;SDS011;4308;51.294;6.590;2023-04-06T13:29:32;7.57;;;6.10;;
8540;SDS011;4308;51.294;6.590;2023-04-06T13:31:59;8.10;;;5.60;;
8540;SDS011;4308;51.294;6.590;2023-04-06T13:34:27;12.23;;;6.57;;
8540;SDS011;4308;51.294;6.590;2023-04-06T13:36:55;9.90;;;5.93;;
8540;SDS011;4308;51.294;6.590;2023-04-06T13:39:22;8.70;;;6.10;;
8540;SDS011;4308;51.294;6.590;2023-04-06T13:41:50;9.00;;;6.17;;
8540;SDS011;4308;51.294;6.590;2023-04-06T13:44:18;9.93;;;6.00;;
8540;SDS011;4308;51.294;6.590;2023-04-06T13:46:45;9.13;;;6.73;;
8540;SDS011;4308;51.294;6.590;2023-04-06T13:49:13;9.60;;;7.30;;
8540;SDS011;4308;51.294;6.590;2023-04-06T13:51:41;9.47;;;6.37;;
8540;SDS011;4308;51.294;6.590;2023-04-06T13:54:08;11.73;;;6.90;;
8540;SDS011;4308;51.294;6.590;2023-04-06T13:56:36;11.13;;;7.20;;
8540;SDS011;4308;51.294;6.590;2023-04-06T13:59:04;9.77;;;6.73;;
8540;SDS011;4308;51.294;6.590;2023-04-06T14:01:31;9.00;;;7.07;;
8540;SDS011;4308;51.294;6.590;2023-04-06T14:03:59;8.80;;;6.67;;
8540;SDS011;4308;51.294;6.590;2023-04-06T14:06:27;10.23;;;7.77;;
8540;SDS011;4308;51.294;6.590;2023-04-06T14:08:58;7.77;;;6.03;;
8540;SDS011;4308;51.294;6.590;2023-04-06T14:11:26;8.90;;;6.87;;
8540;SDS011;4308;51.294;6.590;2023-04-06T14:13:53;10.33;;;7.07;;
8540;SDS011;4308;51.294;6.590;2023-04-06T14:16:24;11.03;;;6.77;;
8540;SDS011;4308;51.294;6.590;2023-04-06T14:18:51;8.73;;;6.67;;
8540;SDS011;4308;51.294;6.590;2023-04-06T14:21:19;9.47;;;7.00;;
8540;SDS011;4308;51.294;6.590;2023-04-06T14:23:46;10.10;;;6.70;;
8540;SDS011;4308;51.294;6.590;2023-04-06T14:26:14;11.00;;;6.83;;
8540;SDS011;4308;51.294;6.590;2023-04-06T14:28:42;10.73;;;7.40;;
8540;SDS011;4308;51.294;6.590;2023-04-06T14:31:10;10.50;;;7.63;;
8540;SDS011;4308;51.294;6.590;2023-04-06T14:33:38;13.50;;;7.10;;
8540;SDS011;4308;51.294;6.590;2023-04-06T14:36:06;11.27;;;7.27;;
8540;SDS011;4308;51.294;6.590;2023-04-06T14:38:34;9.63;;;7.73;;
8540;SDS011;4308;51.294;6.590;2023-04-06T14:41:01;12.87;;;8.17;;
8540;SDS011;4308;51.294;6.590;2023-04-06T14:43:32;12.83;;;7.53;;
8540;SDS011;4308;51.294;6.590;2023-04-06T14:46:00;8.67;;;6.97;;
8540;SDS011;4308;51.294;6.590;2023-04-06T14:48:28;12.30;;;7.23;;
8540;SDS011;4308;51.294;6.590;2023-04-06T14:50:56;11.60;;;7.67;;
8540;SDS011;4308;51.294;6.590;2023-04-06T14:53:24;13.07;;;8.00;;
8540;SDS011;4308;51.294;6.590;2023-04-06T14:55:52;12.40;;;8.17;;
8540;SDS011;4308;51.294;6.590;2023-04-06T14:58:20;13.10;;;8.03;;
8540;SDS011;4308;51.294;6.590;2023-04-06T15:00:48;9.13;;;6.33;;
8540;SDS011;4308;51.294;6.590;2023-04-06T15:03:15;12.23;;;7.83;;
8540;SDS011;4308;51.294;6.590;2023-04-06T15:05:43;11.97;;;7.53;;
8540;SDS011;4308;51.294;6.590;2023-04-06T15:08:11;11.57;;;6.93;;
8540;SDS011;4308;51.294;6.590;2023-04-06T15:10:38;11.97;;;7.73;;